Decoded Metar for CYIO (POND INLET in NU, CANADA) (IATA:YIO) | Meteo·Mobile Aviation Weather
aviador You're here:

CYIO Decoded Metar

POND INLET in NU, CANADA
Report Time2018-10-15 18:00:00
UTC Time2018-10-15 18:51:56
Flight Rules mvfr MVFR
Wind190° at 06 kt
W.Decomp.*RWY 20: 5.1 kt HW 3.1 kt RCW
W.Rank190° ranks 4
Current wind is above 190° avg. (5.5)
Visibility9999 m
Phenomena:Light Snow
Clouds:Broken 016 Hf
Broken 023 Hf
Expected CloudBase > 800 ft AGL from Temp-Dew spread
Ceiling1,600 ft
Temp-10°C (ISA -25)
Dew Point-12°C (85% RH)
AAT-15.4°C
QNH1000 hPa
Density Alt-2,408 ft
Elevation187 ft
Report Wrong Elevation
Raw Report
CYIO 151800Z 19006KT 40SM -SN BKN016 BKN023 M10/M12 A2953 RMK
SC6SC1 SLP009=

Extra information for CYIO:More info

Metar Taf Metar & Taf Last 4 Metars F.Rules Stats Wind Profile Meteogram Temp Stats Airport Information Weather charts Add Link Nearby VenuesMetar ALERT Operation Metar Decoded Social comments